...

 METAR AND TAF INFORMATION
METAR FOR EKEB
ADDS - METARS form results

(2130 UTC 19 May 2019)
Data provider http://aviationweather.gov/metar/data/
 
METAR text: EKEB 192120Z AUTO 05005KT 9000 NCD 14/14 Q1009
Conditions at: EKEB (ESBJERG , DK) observed 2120 UTC 19 May 2019
Temperature: 14.0°C (57°F)
Dewpoint: 14.0°C (57°F) [RH = 100%]
Pressure (altimeter): 29.79 inches Hg (1009.0 mb)
Winds: from the NE (50 degrees) at 6 MPH (5 knots; 2.6 m/s)
Visibility: 6 miles ( 9 km)
Ceiling: at least 12,000 feet AGL
Clouds: sky clear below 12,000 feet AGL
Weather: no significant weather observed at this time

METAR text: EKEB 192050Z AUTO 04004KT 8000 NCD 14/13 Q1009
Conditions at: EKEB (ESBJERG , DK) observed 2050 UTC 19 May 2019
Temperature: 14.0°C (57°F)
Dewpoint: 13.0°C (55°F) [RH = 94%]
Pressure (altimeter): 29.79 inches Hg (1009.0 mb)
Winds: from the NE (40 degrees) at 5 MPH (4 knots; 2.1 m/s)
Visibility: 5 miles ( 8 km)
Ceiling: at least 12,000 feet AGL
Clouds: sky clear below 12,000 feet AGL
Weather: no significant weather observed at this time

Forecast for: EKEB (ESBJERG , DK)
Text: TAF EKEB 191723Z 1918/1922 09009KT 9999 SCT015
Forecast period: 1800 to 2200 UTC 19 May 2019
Forecast type: FROM: standard forecast or significant change
Winds: from the E (90 degrees) at 10 MPH (9 knots; 4.6 m/s)
Visibility: 6 or more miles 10+ km)
Ceiling: at least 12,000 feet AGL
Clouds: scattered clouds at 1500 feet AGL
Weather: no significant weather forecast for this period

 AIRPORT MAP

 RUNWAY INFORMATION
Runway 08 Runway length 8527 ft Runway width 148 ft
Runway elevation 78 ft Runway displaced threshold 0 ft Runway heading 79
Runway 26 Runway length 8527 ft Runway width 148 ft
Runway elevation 97 ft Runway displaced threshold 0 ft Runway heading 259

 AIRPORT FREQUENCIES
Type AFIS Name AFIS Frequency 120.15 MHZ
Type MISC Name HANDLING Frequency 130.575 MHZ

 AIRPORT NEAR NAVIGATION AIDS
Type NDB Name Esbjerg Frequency 376 KHZ